sensor_id;sensor_type;location;lat;lon;timestamp;pressure;altitude;pressure_sealevel;temperature;humidity
57568;BME280;43403;51.948;5.922;2023-10-08T00:00:26;102142.19;;;18.45;100.00
57568;BME280;43403;51.948;5.922;2023-10-08T00:03:12;102142.34;;;18.43;100.00
57568;BME280;43403;51.948;5.922;2023-10-08T00:05:41;102149.31;;;18.44;100.00
57568;BME280;43403;51.948;5.922;2023-10-08T00:08:08;102152.16;;;18.43;100.00
57568;BME280;43403;51.948;5.922;2023-10-08T00:10:39;102168.75;;;18.45;100.00
57568;BME280;43403;51.948;5.922;2023-10-08T00:13:10;102167.44;;;18.41;100.00
57568;BME280;43403;51.948;5.922;2023-10-08T00:15:36;102166.06;;;18.36;100.00
57568;BME280;43403;51.948;5.922;2023-10-08T00:18:04;102160.59;;;18.38;100.00
57568;BME280;43403;51.948;5.922;2023-10-08T00:20:34;102157.13;;;18.37;100.00
57568;BME280;43403;51.948;5.922;2023-10-08T00:23:30;102162.94;;;18.33;100.00
57568;BME280;43403;51.948;5.922;2023-10-08T00:25:56;102175.06;;;18.35;100.00
57568;BME280;43403;51.948;5.922;2023-10-08T00:28:24;102168.25;;;18.33;100.00
57568;BME280;43403;51.948;5.922;2023-10-08T00:30:54;102184.66;;;18.36;100.00
57568;BME280;43403;51.948;5.922;2023-10-08T00:33:21;102176.91;;;18.35;100.00
57568;BME280;43403;51.948;5.922;2023-10-08T00:35:48;102186.50;;;18.36;100.00
57568;BME280;43403;51.948;5.922;2023-10-08T00:38:16;102194.97;;;18.40;100.00
57568;BME280;43403;51.948;5.922;2023-10-08T00:40:47;102190.34;;;18.42;100.00
57568;BME280;43403;51.948;5.922;2023-10-08T00:46:03;102194.47;;;18.44;100.00
57568;BME280;43403;51.948;5.922;2023-10-08T00:48:31;102201.13;;;18.40;100.00
57568;BME280;43403;51.948;5.922;2023-10-08T00:51:02;102188.84;;;18.39;100.00
57568;BME280;43403;51.948;5.922;2023-10-08T00:54:03;102178.38;;;18.37;100.00
57568;BME280;43403;51.948;5.922;2023-10-08T00:56:35;102177.72;;;18.35;100.00
57568;BME280;43403;51.948;5.922;2023-10-08T00:59:24;102181.69;;;18.31;100.00
57568;BME280;43403;51.948;5.922;2023-10-08T01:01:59;102164.94;;;18.31;100.00
57568;BME280;43403;51.948;5.922;2023-10-08T01:04:32;102172.41;;;18.27;100.00
57568;BME280;43403;51.948;5.922;2023-10-08T01:07:04;102167.59;;;18.31;100.00
57568;BME280;43403;51.948;5.922;2023-10-08T01:09:43;102170.06;;;18.32;100.00
57568;BME280;43403;51.948;5.922;2023-10-08T01:12:24;102167.41;;;18.32;100.00
57568;BME280;43403;51.948;5.922;2023-10-08T01:15:01;102166.06;;;18.36;100.00
57568;BME280;43403;51.948;5.922;2023-10-08T01:17:42;102158.78;;;18.30;100.00
57568;BME280;43403;51.948;5.922;2023-10-08T01:20:20;102166.44;;;18.33;100.00
57568;BME280;43403;51.948;5.922;2023-10-08T01:23:15;102159.78;;;18.29;100.00
57568;BME280;43403;51.948;5.922;2023-10-08T01:25:48;102152.63;;;18.22;100.00
57568;BME280;43403;51.948;5.922;2023-10-08T01:28:19;102151.78;;;18.13;100.00
57568;BME280;43403;51.948;5.922;2023-10-08T01:31:00;102150.63;;;18.07;100.00
57568;BME280;43403;51.948;5.922;2023-10-08T01:33:30;102155.75;;;18.09;100.00
57568;BME280;43403;51.948;5.922;2023-10-08T01:36:05;102160.41;;;18.07;100.00
57568;BME280;43403;51.948;5.922;2023-10-08T01:38:34;102156.75;;;18.00;100.00
57568;BME280;43403;51.948;5.922;2023-10-08T01:41:01;102155.44;;;17.95;100.00
57568;BME280;43403;51.948;5.922;2023-10-08T01:43:46;102136.50;;;17.90;100.00
57568;BME280;43403;51.948;5.922;2023-10-08T01:46:12;102145.78;;;17.94;100.00
57568;BME280;43403;51.948;5.922;2023-10-08T01:48:39;102161.88;;;18.01;100.00
57568;BME280;43403;51.948;5.922;2023-10-08T01:51:06;102143.44;;;17.91;100.00
57568;BME280;43403;51.948;5.922;2023-10-08T01:53:38;102155.44;;;17.95;100.00
57568;BME280;43403;51.948;5.922;2023-10-08T01:56:05;102158.09;;;17.95;100.00
57568;BME280;43403;51.948;5.922;2023-10-08T01:58:32;102163.72;;;18.01;100.00
57568;BME280;43403;51.948;5.922;2023-10-08T02:01:01;102170.69;;;18.02;100.00
57568;BME280;43403;51.948;5.922;2023-10-08T02:03:27;102166.22;;;18.02;100.00
57568;BME280;43403;51.948;5.922;2023-10-08T02:05:54;102185.97;;;18.08;100.00
57568;BME280;43403;51.948;5.922;2023-10-08T02:08:25;102181.34;;;18.10;100.00
57568;BME280;43403;51.948;5.922;2023-10-08T02:10:52;102181.34;;;18.10;100.00
57568;BME280;43403;51.948;5.922;2023-10-08T02:13:19;65435.88;;;-145.50;100.00
57568;BME280;43403;51.948;5.922;2023-10-08T02:15:50;65435.88;;;-145.50;100.00
57568;BME280;43403;51.948;5.922;2023-10-08T02:18:20;65435.88;;;-145.50;100.00
57568;BME280;43403;51.948;5.922;2023-10-08T02:20:50;65435.88;;;-145.50;100.00
57568;BME280;43403;51.948;5.922;2023-10-08T02:23:17;65435.88;;;-145.50;100.00
57568;BME280;43403;51.948;5.922;2023-10-08T02:25:44;65435.88;;;-145.50;100.00
57568;BME280;43403;51.948;5.922;2023-10-08T02:28:11;65435.88;;;-145.50;100.00
57568;BME280;43403;51.948;5.922;2023-10-08T02:30:42;65435.88;;;-145.50;100.00
57568;BME280;43403;51.948;5.922;2023-10-08T02:33:09;65435.88;;;-145.50;100.00
57568;BME280;43403;51.948;5.922;2023-10-08T02:35:43;65435.88;;;-145.50;100.00
57568;BME280;43403;51.948;5.922;2023-10-08T02:38:11;65435.88;;;-145.50;100.00
57568;BME280;43403;51.948;5.922;2023-10-08T02:40:43;65435.88;;;-145.50;100.00
57568;BME280;43403;51.948;5.922;2023-10-08T02:43:14;65435.88;;;-145.50;100.00
57568;BME280;43403;51.948;5.922;2023-10-08T02:45:42;65435.88;;;-145.50;100.00
57568;BME280;43403;51.948;5.922;2023-10-08T02:48:10;65435.88;;;-145.50;100.00
57568;BME280;43403;51.948;5.922;2023-10-08T02:50:42;65435.88;;;-145.50;100.00
57568;BME280;43403;51.948;5.922;2023-10-08T02:53:10;65435.88;;;-145.50;100.00
57568;BME280;43403;51.948;5.922;2023-10-08T02:55:38;65435.88;;;-145.50;100.00
57568;BME280;43403;51.948;5.922;2023-10-08T02:58:11;65435.88;;;-145.50;100.00
57568;BME280;43403;51.948;5.922;2023-10-08T03:00:45;65435.88;;;-145.50;100.00
57568;BME280;43403;51.948;5.922;2023-10-08T03:03:15;65435.88;;;-145.50;100.00
57568;BME280;43403;51.948;5.922;2023-10-08T03:05:47;65435.88;;;-145.50;100.00
57568;BME280;43403;51.948;5.922;2023-10-08T03:08:15;65435.88;;;-145.50;100.00
57568;BME280;43403;51.948;5.922;2023-10-08T03:10:51;65435.88;;;-145.50;100.00
57568;BME280;43403;51.948;5.922;2023-10-08T03:13:22;65435.88;;;-145.50;100.00
57568;BME280;43403;51.948;5.922;2023-10-08T03:15:49;65435.88;;;-145.50;100.00
57568;BME280;43403;51.948;5.922;2023-10-08T03:18:27;65435.88;;;-145.50;100.00
57568;BME280;43403;51.948;5.922;2023-10-08T03:21:05;65435.88;;;-145.50;100.00
57568;BME280;43403;51.948;5.922;2023-10-08T03:23:49;65435.88;;;-145.50;100.00
57568;BME280;43403;51.948;5.922;2023-10-08T03:26:23;65435.88;;;-145.50;100.00
57568;BME280;43403;51.948;5.922;2023-10-08T03:29:01;65435.88;;;-145.50;100.00
57568;BME280;43403;51.948;5.922;2023-10-08T03:31:32;65435.88;;;-145.50;100.00
57568;BME280;43403;51.948;5.922;2023-10-08T03:34:19;65435.88;;;-145.50;100.00
57568;BME280;43403;51.948;5.922;2023-10-08T03:36:48;65435.88;;;-145.50;100.00
57568;BME280;43403;51.948;5.922;2023-10-08T03:39:17;65435.88;;;-145.50;100.00
57568;BME280;43403;51.948;5.922;2023-10-08T03:41:47;65435.88;;;-145.50;100.00
57568;BME280;43403;51.948;5.922;2023-10-08T03:44:33;65435.88;;;-145.50;100.00
57568;BME280;43403;51.948;5.922;2023-10-08T03:47:04;65435.88;;;-145.50;100.00
57568;BME280;43403;51.948;5.922;2023-10-08T03:49:38;65435.88;;;-145.50;100.00
57568;BME280;43403;51.948;5.922;2023-10-08T03:52:12;65435.88;;;-145.50;100.00
57568;BME280;43403;51.948;5.922;2023-10-08T03:54:41;65435.88;;;-145.50;100.00
57568;BME280;43403;51.948;5.922;2023-10-08T03:57:27;65435.88;;;-145.50;100.00
57568;BME280;43403;51.948;5.922;2023-10-08T04:00:11;65435.88;;;-145.50;100.00
57568;BME280;43403;51.948;5.922;2023-10-08T04:02:41;65435.88;;;-145.50;100.00
57568;BME280;43403;51.948;5.922;2023-10-08T04:05:13;65435.88;;;-145.50;100.00
57568;BME280;43403;51.948;5.922;2023-10-08T04:07:46;65435.88;;;-145.50;100.00
57568;BME280;43403;51.948;5.922;2023-10-08T04:10:31;65435.88;;;-145.50;100.00
57568;BME280;43403;51.948;5.922;2023-10-08T04:13:16;65435.88;;;-145.50;100.00
57568;BME280;43403;51.948;5.922;2023-10-08T04:15:42;65435.88;;;-145.50;100.00
57568;BME280;43403;51.948;5.922;2023-10-08T04:18:10;65435.88;;;-145.50;100.00
57568;BME280;43403;51.948;5.922;2023-10-08T04:20:37;65435.88;;;-145.50;100.00
57568;BME280;43403;51.948;5.922;2023-10-08T04:23:09;65435.88;;;-145.50;100.00
57568;BME280;43403;51.948;5.922;2023-10-08T04:25:40;65435.88;;;-145.50;100.00
57568;BME280;43403;51.948;5.922;2023-10-08T04:28:09;65435.88;;;-145.50;100.00
57568;BME280;43403;51.948;5.922;2023-10-08T04:30:41;65435.88;;;-145.50;100.00
57568;BME280;43403;51.948;5.922;2023-10-08T04:33:08;65435.88;;;-145.50;100.00
57568;BME280;43403;51.948;5.922;2023-10-08T04:35:41;65435.88;;;-145.50;100.00
57568;BME280;43403;51.948;5.922;2023-10-08T04:38:28;65435.88;;;-145.50;100.00
57568;BME280;43403;51.948;5.922;2023-10-08T04:40:55;65435.88;;;-145.50;100.00
57568;BME280;43403;51.948;5.922;2023-10-08T04:43:28;65435.88;;;-145.50;100.00
57568;BME280;43403;51.948;5.922;2023-10-08T04:45:58;65435.88;;;-145.50;100.00
57568;BME280;43403;51.948;5.922;2023-10-08T04:48:25;65435.88;;;-145.50;100.00
57568;BME280;43403;51.948;5.922;2023-10-08T04:50:56;65435.88;;;-145.50;100.00
57568;BME280;43403;51.948;5.922;2023-10-08T04:53:30;65435.88;;;-145.50;100.00
57568;BME280;43403;51.948;5.922;2023-10-08T04:56:04;65435.88;;;-145.50;100.00
57568;BME280;43403;51.948;5.922;2023-10-08T04:58:33;65435.88;;;-145.50;100.00
57568;BME280;43403;51.948;5.922;2023-10-08T05:01:03;65435.88;;;-145.50;100.00
57568;BME280;43403;51.948;5.922;2023-10-08T05:03:49;65435.88;;;-145.50;100.00
57568;BME280;43403;51.948;5.922;2023-10-08T05:06:27;65435.88;;;-145.50;100.00
57568;BME280;43403;51.948;5.922;2023-10-08T05:09:20;65435.88;;;-145.50;100.00
57568;BME280;43403;51.948;5.922;2023-10-08T05:11:51;65435.88;;;-145.50;100.00
57568;BME280;43403;51.948;5.922;2023-10-08T05:14:19;65435.88;;;-145.50;100.00
57568;BME280;43403;51.948;5.922;2023-10-08T05:17:05;65435.88;;;-145.50;100.00
57568;BME280;43403;51.948;5.922;2023-10-08T05:19:44;65435.88;;;-145.50;100.00
57568;BME280;43403;51.948;5.922;2023-10-08T05:22:18;65435.88;;;-145.50;100.00
57568;BME280;43403;51.948;5.922;2023-10-08T05:24:48;65435.88;;;-145.50;100.00
57568;BME280;43403;51.948;5.922;2023-10-08T05:27:35;65435.88;;;-145.50;100.00
57568;BME280;43403;51.948;5.922;2023-10-08T05:30:27;65435.88;;;-145.50;100.00
57568;BME280;43403;51.948;5.922;2023-10-08T05:32:55;65435.88;;;-145.50;100.00
57568;BME280;43403;51.948;5.922;2023-10-08T05:35:42;65435.88;;;-145.50;100.00
57568;BME280;43403;51.948;5.922;2023-10-08T05:38:13;65435.88;;;-145.50;100.00
57568;BME280;43403;51.948;5.922;2023-10-08T05:41:04;65435.88;;;-145.50;100.00
57568;BME280;43403;51.948;5.922;2023-10-08T05:43:33;65435.88;;;-145.50;100.00
57568;BME280;43403;51.948;5.922;2023-10-08T05:46:14;65435.88;;;-145.50;100.00
57568;BME280;43403;51.948;5.922;2023-10-08T05:48:55;65435.88;;;-145.50;100.00
57568;BME280;43403;51.948;5.922;2023-10-08T05:51:42;65435.88;;;-145.50;100.00
57568;BME280;43403;51.948;5.922;2023-10-08T05:54:20;65435.88;;;-145.50;100.00
57568;BME280;43403;51.948;5.922;2023-10-08T05:57:07;65435.88;;;-145.50;100.00
57568;BME280;43403;51.948;5.922;2023-10-08T06:02:30;65435.88;;;-145.50;100.00
57568;BME280;43403;51.948;5.922;2023-10-08T06:05:01;65435.88;;;-145.50;100.00
57568;BME280;43403;51.948;5.922;2023-10-08T06:07:42;65435.88;;;-145.50;100.00
57568;BME280;43403;51.948;5.922;2023-10-08T06:10:17;65435.88;;;-145.50;100.00
57568;BME280;43403;51.948;5.922;2023-10-08T06:13:10;65435.88;;;-145.50;100.00
57568;BME280;43403;51.948;5.922;2023-10-08T06:15:45;65435.88;;;-145.50;100.00
57568;BME280;43403;51.948;5.922;2023-10-08T06:18:16;65435.88;;;-145.50;100.00
57568;BME280;43403;51.948;5.922;2023-10-08T06:20:45;65435.88;;;-145.50;100.00
57568;BME280;43403;51.948;5.922;2023-10-08T06:23:12;65435.88;;;-145.50;100.00
57568;BME280;43403;51.948;5.922;2023-10-08T06:25:46;65435.88;;;-145.50;100.00
57568;BME280;43403;51.948;5.922;2023-10-08T06:28:19;65435.88;;;-145.50;100.00
57568;BME280;43403;51.948;5.922;2023-10-08T06:30:47;65435.88;;;-145.50;100.00
57568;BME280;43403;51.948;5.922;2023-10-08T06:33:14;65435.88;;;-145.50;100.00
57568;BME280;43403;51.948;5.922;2023-10-08T06:35:41;65435.88;;;-145.50;100.00
57568;BME280;43403;51.948;5.922;2023-10-08T06:38:11;65435.88;;;-145.50;100.00
57568;BME280;43403;51.948;5.922;2023-10-08T06:40:42;65435.88;;;-145.50;100.00
57568;BME280;43403;51.948;5.922;2023-10-08T06:43:09;65435.88;;;-145.50;100.00
57568;BME280;43403;51.948;5.922;2023-10-08T06:45:44;65435.88;;;-145.50;100.00
57568;BME280;43403;51.948;5.922;2023-10-08T06:48:11;65435.88;;;-145.50;100.00
57568;BME280;43403;51.948;5.922;2023-10-08T06:50:45;65435.88;;;-145.50;100.00
57568;BME280;43403;51.948;5.922;2023-10-08T06:53:13;65435.88;;;-145.50;100.00
57568;BME280;43403;51.948;5.922;2023-10-08T06:55:44;65435.88;;;-145.50;100.00
57568;BME280;43403;51.948;5.922;2023-10-08T06:58:11;65435.88;;;-145.50;100.00
57568;BME280;43403;51.948;5.922;2023-10-08T07:00:38;65435.88;;;-145.50;100.00
57568;BME280;43403;51.948;5.922;2023-10-08T07:03:16;65435.88;;;-145.50;100.00
57568;BME280;43403;51.948;5.922;2023-10-08T07:05:45;65435.88;;;-145.50;100.00
57568;BME280;43403;51.948;5.922;2023-10-08T07:08:29;65435.88;;;-145.50;100.00
57568;BME280;43403;51.948;5.922;2023-10-08T07:11:01;65435.88;;;-145.50;100.00
57568;BME280;43403;51.948;5.922;2023-10-08T07:13:33;65435.88;;;-145.50;100.00
57568;BME280;43403;51.948;5.922;2023-10-08T07:16:02;65435.88;;;-145.50;100.00
57568;BME280;43403;51.948;5.922;2023-10-08T07:18:30;65435.88;;;-145.50;100.00
57568;BME280;43403;51.948;5.922;2023-10-08T07:21:02;65435.88;;;-145.50;100.00
57568;BME280;43403;51.948;5.922;2023-10-08T07:23:38;65435.88;;;-145.50;100.00
57568;BME280;43403;51.948;5.922;2023-10-08T07:26:24;65435.88;;;-145.50;100.00
57568;BME280;43403;51.948;5.922;2023-10-08T07:28:51;65435.88;;;-145.50;100.00
57568;BME280;43403;51.948;5.922;2023-10-08T07:31:23;65435.88;;;-145.50;100.00
57568;BME280;43403;51.948;5.922;2023-10-08T07:33:53;65435.88;;;-145.50;100.00
57568;BME280;43403;51.948;5.922;2023-10-08T07:36:23;65435.88;;;-145.50;100.00
57568;BME280;43403;51.948;5.922;2023-10-08T07:38:51;65435.88;;;-145.50;100.00
57568;BME280;43403;51.948;5.922;2023-10-08T07:41:19;65435.88;;;-145.50;100.00
57568;BME280;43403;51.948;5.922;2023-10-08T07:43:47;65435.88;;;-145.50;100.00
57568;BME280;43403;51.948;5.922;2023-10-08T07:46:22;65435.88;;;-145.50;100.00
57568;BME280;43403;51.948;5.922;2023-10-08T07:48:49;65435.88;;;-145.50;100.00
57568;BME280;43403;51.948;5.922;2023-10-08T07:51:16;65435.88;;;-145.50;100.00
57568;BME280;43403;51.948;5.922;2023-10-08T07:53:51;65435.88;;;-145.50;100.00
57568;BME280;43403;51.948;5.922;2023-10-08T07:56:23;65435.88;;;-145.50;100.00
57568;BME280;43403;51.948;5.922;2023-10-08T07:58:53;65435.88;;;-145.50;100.00
57568;BME280;43403;51.948;5.922;2023-10-08T08:01:23;65435.88;;;-145.50;100.00
57568;BME280;43403;51.948;5.922;2023-10-08T08:03:51;65435.88;;;-145.50;100.00
57568;BME280;43403;51.948;5.922;2023-10-08T08:06:18;65435.88;;;-145.50;100.00
57568;BME280;43403;51.948;5.922;2023-10-08T08:08:44;65435.88;;;-145.50;100.00
57568;BME280;43403;51.948;5.922;2023-10-08T08:11:11;65435.88;;;-145.50;100.00
57568;BME280;43403;51.948;5.922;2023-10-08T08:13:44;65435.88;;;-145.50;100.00
57568;BME280;43403;51.948;5.922;2023-10-08T08:16:12;65435.88;;;-145.50;100.00
57568;BME280;43403;51.948;5.922;2023-10-08T08:18:50;65435.88;;;-145.50;100.00
57568;BME280;43403;51.948;5.922;2023-10-08T08:21:19;65435.88;;;-145.50;100.00
57568;BME280;43403;51.948;5.922;2023-10-08T08:23:47;65435.88;;;-145.50;100.00
57568;BME280;43403;51.948;5.922;2023-10-08T08:26:18;65435.88;;;-145.50;100.00
57568;BME280;43403;51.948;5.922;2023-10-08T08:29:02;65435.88;;;-145.50;100.00
57568;BME280;43403;51.948;5.922;2023-10-08T08:31:29;65435.88;;;-145.50;100.00
57568;BME280;43403;51.948;5.922;2023-10-08T08:34:02;65435.88;;;-145.50;100.00
57568;BME280;43403;51.948;5.922;2023-10-08T08:36:30;65435.88;;;-145.50;100.00
57568;BME280;43403;51.948;5.922;2023-10-08T08:38:58;65435.88;;;-145.50;100.00
57568;BME280;43403;51.948;5.922;2023-10-08T08:41:25;65435.88;;;-145.50;100.00
57568;BME280;43403;51.948;5.922;2023-10-08T08:43:53;65435.88;;;-145.50;100.00
57568;BME280;43403;51.948;5.922;2023-10-08T08:46:28;65435.88;;;-145.50;100.00
57568;BME280;43403;51.948;5.922;2023-10-08T08:49:03;65435.88;;;-145.50;100.00
57568;BME280;43403;51.948;5.922;2023-10-08T08:51:35;65435.88;;;-145.50;100.00
57568;BME280;43403;51.948;5.922;2023-10-08T08:54:02;65435.88;;;-145.50;100.00
57568;BME280;43403;51.948;5.922;2023-10-08T08:56:33;65435.88;;;-145.50;100.00
57568;BME280;43403;51.948;5.922;2023-10-08T08:59:01;65435.88;;;-145.50;100.00
57568;BME280;43403;51.948;5.922;2023-10-08T09:01:29;65435.88;;;-145.50;100.00
57568;BME280;43403;51.948;5.922;2023-10-08T09:04:01;65435.88;;;-145.50;100.00
57568;BME280;43403;51.948;5.922;2023-10-08T09:06:28;65435.88;;;-145.50;100.00
57568;BME280;43403;51.948;5.922;2023-10-08T09:08:55;65435.88;;;-145.50;100.00
57568;BME280;43403;51.948;5.922;2023-10-08T09:11:40;65435.88;;;-145.50;100.00
57568;BME280;43403;51.948;5.922;2023-10-08T09:14:09;65435.88;;;-145.50;100.00
57568;BME280;43403;51.948;5.922;2023-10-08T09:16:37;65435.88;;;-145.50;100.00
57568;BME280;43403;51.948;5.922;2023-10-08T09:19:04;65435.88;;;-145.50;100.00
57568;BME280;43403;51.948;5.922;2023-10-08T09:21:38;65435.88;;;-145.50;100.00
57568;BME280;43403;51.948;5.922;2023-10-08T09:24:07;65435.88;;;-145.50;100.00
57568;BME280;43403;51.948;5.922;2023-10-08T09:26:37;65435.88;;;-145.50;100.00
57568;BME280;43403;51.948;5.922;2023-10-08T09:29:07;65435.88;;;-145.50;100.00
57568;BME280;43403;51.948;5.922;2023-10-08T09:31:34;65435.88;;;-145.50;100.00
57568;BME280;43403;51.948;5.922;2023-10-08T09:34:03;65435.88;;;-145.50;100.00
57568;BME280;43403;51.948;5.922;2023-10-08T09:36:31;65435.88;;;-145.50;100.00
57568;BME280;43403;51.948;5.922;2023-10-08T09:39:02;65435.88;;;-145.50;100.00
57568;BME280;43403;51.948;5.922;2023-10-08T09:41:32;65435.88;;;-145.50;100.00
57568;BME280;43403;51.948;5.922;2023-10-08T09:43:59;65435.88;;;-145.50;100.00
57568;BME280;43403;51.948;5.922;2023-10-08T09:46:30;65435.88;;;-145.50;100.00
57568;BME280;43403;51.948;5.922;2023-10-08T09:49:00;65435.88;;;-145.50;100.00
57568;BME280;43403;51.948;5.922;2023-10-08T09:51:30;65435.88;;;-145.50;100.00
57568;BME280;43403;51.948;5.922;2023-10-08T09:54:10;65435.88;;;-145.50;100.00
57568;BME280;43403;51.948;5.922;2023-10-08T09:56:40;65435.88;;;-145.50;100.00
57568;BME280;43403;51.948;5.922;2023-10-08T09:59:10;65435.88;;;-145.50;100.00
57568;BME280;43403;51.948;5.922;2023-10-08T10:01:38;65435.88;;;-145.50;100.00
57568;BME280;43403;51.948;5.922;2023-10-08T10:04:10;65435.88;;;-145.50;100.00
57568;BME280;43403;51.948;5.922;2023-10-08T10:06:38;65435.88;;;-145.50;100.00
57568;BME280;43403;51.948;5.922;2023-10-08T10:09:06;65435.88;;;-145.50;100.00
57568;BME280;43403;51.948;5.922;2023-10-08T10:11:49;65435.88;;;-145.50;100.00
57568;BME280;43403;51.948;5.922;2023-10-08T10:14:22;65435.88;;;-145.50;100.00
57568;BME280;43403;51.948;5.922;2023-10-08T10:19:44;65435.88;;;-145.50;100.00
57568;BME280;43403;51.948;5.922;2023-10-08T10:22:27;65435.88;;;-145.50;100.00
57568;BME280;43403;51.948;5.922;2023-10-08T10:24:56;65435.88;;;-145.50;100.00
57568;BME280;43403;51.948;5.922;2023-10-08T10:27:22;65435.88;;;-145.50;100.00
57568;BME280;43403;51.948;5.922;2023-10-08T10:29:49;65435.88;;;-145.50;100.00
57568;BME280;43403;51.948;5.922;2023-10-08T10:32:16;65435.88;;;-145.50;100.00
57568;BME280;43403;51.948;5.922;2023-10-08T10:34:43;65435.88;;;-145.50;100.00
57568;BME280;43403;51.948;5.922;2023-10-08T10:37:10;65435.88;;;-145.50;100.00
57568;BME280;43403;51.948;5.922;2023-10-08T10:39:53;65435.88;;;-145.50;100.00
57568;BME280;43403;51.948;5.922;2023-10-08T10:42:22;65435.88;;;-145.50;100.00
57568;BME280;43403;51.948;5.922;2023-10-08T10:44:49;65435.88;;;-145.50;100.00
57568;BME280;43403;51.948;5.922;2023-10-08T10:47:17;65435.88;;;-145.50;100.00
57568;BME280;43403;51.948;5.922;2023-10-08T10:49:48;65435.88;;;-145.50;100.00
57568;BME280;43403;51.948;5.922;2023-10-08T10:52:20;65435.88;;;-145.50;100.00
57568;BME280;43403;51.948;5.922;2023-10-08T10:55:12;65435.88;;;-145.50;100.00
57568;BME280;43403;51.948;5.922;2023-10-08T10:57:53;65435.88;;;-145.50;100.00
57568;BME280;43403;51.948;5.922;2023-10-08T11:00:42;65435.88;;;-145.50;100.00
57568;BME280;43403;51.948;5.922;2023-10-08T11:03:09;65435.88;;;-145.50;100.00
57568;BME280;43403;51.948;5.922;2023-10-08T11:05:55;65435.88;;;-145.50;100.00
57568;BME280;43403;51.948;5.922;2023-10-08T11:08:26;65435.88;;;-145.50;100.00
57568;BME280;43403;51.948;5.922;2023-10-08T11:11:02;65435.88;;;-145.50;100.00
57568;BME280;43403;51.948;5.922;2023-10-08T11:13:34;65435.88;;;-145.50;100.00
57568;BME280;43403;51.948;5.922;2023-10-08T11:16:07;65435.88;;;-145.50;100.00
57568;BME280;43403;51.948;5.922;2023-10-08T11:18:44;65435.88;;;-145.50;100.00
57568;BME280;43403;51.948;5.922;2023-10-08T11:21:13;65435.88;;;-145.50;100.00
57568;BME280;43403;51.948;5.922;2023-10-08T11:23:46;65435.88;;;-145.50;100.00
57568;BME280;43403;51.948;5.922;2023-10-08T11:26:23;65435.88;;;-145.50;100.00
57568;BME280;43403;51.948;5.922;2023-10-08T11:28:59;65435.88;;;-145.50;100.00
57568;BME280;43403;51.948;5.922;2023-10-08T11:31:30;65435.88;;;-145.50;100.00
57568;BME280;43403;51.948;5.922;2023-10-08T11:34:02;65435.88;;;-145.50;100.00
57568;BME280;43403;51.948;5.922;2023-10-08T11:36:38;65435.88;;;-145.50;100.00
57568;BME280;43403;51.948;5.922;2023-10-08T11:39:20;65435.88;;;-145.50;100.00
57568;BME280;43403;51.948;5.922;2023-10-08T11:41:57;65435.88;;;-145.50;100.00
57568;BME280;43403;51.948;5.922;2023-10-08T11:44:24;65435.88;;;-145.50;100.00
57568;BME280;43403;51.948;5.922;2023-10-08T11:46:57;65435.88;;;-145.50;100.00
57568;BME280;43403;51.948;5.922;2023-10-08T11:49:31;65435.88;;;-145.50;100.00
57568;BME280;43403;51.948;5.922;2023-10-08T11:52:02;65435.88;;;-145.50;100.00
57568;BME280;43403;51.948;5.922;2023-10-08T11:54:30;65435.88;;;-145.50;100.00
57568;BME280;43403;51.948;5.922;2023-10-08T11:57:00;65435.88;;;-145.50;100.00
57568;BME280;43403;51.948;5.922;2023-10-08T11:59:29;65435.88;;;-145.50;100.00
57568;BME280;43403;51.948;5.922;2023-10-08T12:01:56;65435.88;;;-145.50;100.00
57568;BME280;43403;51.948;5.922;2023-10-08T12:04:23;65435.88;;;-145.50;100.00
57568;BME280;43403;51.948;5.922;2023-10-08T12:06:49;65435.88;;;-145.50;100.00
57568;BME280;43403;51.948;5.922;2023-10-08T12:09:18;65435.88;;;-145.50;100.00
57568;BME280;43403;51.948;5.922;2023-10-08T12:11:48;65435.88;;;-145.50;100.00
57568;BME280;43403;51.948;5.922;2023-10-08T12:14:15;65435.88;;;-145.50;100.00
57568;BME280;43403;51.948;5.922;2023-10-08T12:16:42;65435.88;;;-145.50;100.00
57568;BME280;43403;51.948;5.922;2023-10-08T12:19:09;65435.88;;;-145.50;100.00
57568;BME280;43403;51.948;5.922;2023-10-08T12:21:43;65435.88;;;-145.50;100.00
57568;BME280;43403;51.948;5.922;2023-10-08T12:24:13;65435.88;;;-145.50;100.00
57568;BME280;43403;51.948;5.922;2023-10-08T12:26:41;65435.88;;;-145.50;100.00
57568;BME280;43403;51.948;5.922;2023-10-08T12:29:14;65435.88;;;-145.50;100.00
57568;BME280;43403;51.948;5.922;2023-10-08T12:31:41;65435.88;;;-145.50;100.00
57568;BME280;43403;51.948;5.922;2023-10-08T12:34:07;65435.88;;;-145.50;100.00
57568;BME280;43403;51.948;5.922;2023-10-08T12:36:38;65435.88;;;-145.50;100.00
57568;BME280;43403;51.948;5.922;2023-10-08T12:39:05;65435.88;;;-145.50;100.00
57568;BME280;43403;51.948;5.922;2023-10-08T12:41:41;65435.88;;;-145.50;100.00
57568;BME280;43403;51.948;5.922;2023-10-08T12:44:11;65435.88;;;-145.50;100.00
57568;BME280;43403;51.948;5.922;2023-10-08T12:46:39;65435.88;;;-145.50;100.00
57568;BME280;43403;51.948;5.922;2023-10-08T12:49:06;65435.88;;;-145.50;100.00
57568;BME280;43403;51.948;5.922;2023-10-08T12:51:33;65435.88;;;-145.50;100.00
57568;BME280;43403;51.948;5.922;2023-10-08T12:54:01;65435.88;;;-145.50;100.00
57568;BME280;43403;51.948;5.922;2023-10-08T12:56:34;65435.88;;;-145.50;100.00
57568;BME280;43403;51.948;5.922;2023-10-08T12:59:15;65435.88;;;-145.50;100.00
57568;BME280;43403;51.948;5.922;2023-10-08T13:01:48;65435.88;;;-145.50;100.00
57568;BME280;43403;51.948;5.922;2023-10-08T13:04:21;65435.88;;;-145.50;100.00